sensor_id;sensor_type;location;lat;lon;timestamp;P1;durP1;ratioP1;P2;durP2;ratioP2
11121;SDS011;5615;49.304;10.576;2022-12-10T00:01:21;40.63;;;25.97;;
11121;SDS011;5615;49.304;10.576;2022-12-10T00:03:49;40.50;;;24.93;;
11121;SDS011;5615;49.304;10.576;2022-12-10T00:06:17;42.43;;;25.63;;
11121;SDS011;5615;49.304;10.576;2022-12-10T00:08:46;40.63;;;24.90;;
11121;SDS011;5615;49.304;10.576;2022-12-10T00:11:13;40.20;;;25.17;;
11121;SDS011;5615;49.304;10.576;2022-12-10T00:13:41;40.53;;;25.83;;
11121;SDS011;5615;49.304;10.576;2022-12-10T00:16:09;39.87;;;23.83;;
11121;SDS011;5615;49.304;10.576;2022-12-10T00:18:38;39.87;;;24.87;;
11121;SDS011;5615;49.304;10.576;2022-12-10T00:21:06;39.10;;;24.47;;
11121;SDS011;5615;49.304;10.576;2022-12-10T00:23:34;39.97;;;24.43;;
11121;SDS011;5615;49.304;10.576;2022-12-10T00:26:02;41.47;;;24.83;;
11121;SDS011;5615;49.304;10.576;2022-12-10T00:28:30;37.20;;;23.63;;
11121;SDS011;5615;49.304;10.576;2022-12-10T00:31:01;35.93;;;23.90;;
11121;SDS011;5615;49.304;10.576;2022-12-10T00:33:29;39.57;;;25.53;;
11121;SDS011;5615;49.304;10.576;2022-12-10T00:35:55;36.20;;;23.67;;
11121;SDS011;5615;49.304;10.576;2022-12-10T00:38:23;39.93;;;24.70;;
11121;SDS011;5615;49.304;10.576;2022-12-10T00:40:50;42.43;;;25.70;;
11121;SDS011;5615;49.304;10.576;2022-12-10T00:43:17;39.40;;;23.63;;
11121;SDS011;5615;49.304;10.576;2022-12-10T00:45:43;38.03;;;24.00;;
11121;SDS011;5615;49.304;10.576;2022-12-10T00:48:10;39.63;;;26.17;;
11121;SDS011;5615;49.304;10.576;2022-12-10T00:50:36;41.83;;;24.17;;
11121;SDS011;5615;49.304;10.576;2022-12-10T00:53:03;41.00;;;24.17;;
11121;SDS011;5615;49.304;10.576;2022-12-10T00:55:31;38.47;;;25.03;;
11121;SDS011;5615;49.304;10.576;2022-12-10T00:57:58;39.00;;;24.63;;
11121;SDS011;5615;49.304;10.576;2022-12-10T01:00:24;38.43;;;23.93;;
11121;SDS011;5615;49.304;10.576;2022-12-10T01:02:51;37.53;;;23.30;;
11121;SDS011;5615;49.304;10.576;2022-12-10T01:05:18;35.10;;;23.23;;
11121;SDS011;5615;49.304;10.576;2022-12-10T01:07:45;34.20;;;23.40;;
11121;SDS011;5615;49.304;10.576;2022-12-10T01:10:12;35.87;;;22.50;;
11121;SDS011;5615;49.304;10.576;2022-12-10T01:12:40;39.03;;;24.43;;
11121;SDS011;5615;49.304;10.576;2022-12-10T01:15:07;38.87;;;24.20;;
11121;SDS011;5615;49.304;10.576;2022-12-10T01:17:34;36.07;;;23.80;;
11121;SDS011;5615;49.304;10.576;2022-12-10T01:20:00;40.13;;;24.20;;
11121;SDS011;5615;49.304;10.576;2022-12-10T01:22:27;33.00;;;22.60;;
11121;SDS011;5615;49.304;10.576;2022-12-10T01:24:54;34.90;;;23.20;;
11121;SDS011;5615;49.304;10.576;2022-12-10T01:27:20;34.63;;;24.10;;
11121;SDS011;5615;49.304;10.576;2022-12-10T01:29:48;34.13;;;22.53;;
11121;SDS011;5615;49.304;10.576;2022-12-10T01:32:15;39.67;;;24.47;;
11121;SDS011;5615;49.304;10.576;2022-12-10T01:34:41;40.67;;;25.37;;
11121;SDS011;5615;49.304;10.576;2022-12-10T01:37:08;37.70;;;24.17;;
11121;SDS011;5615;49.304;10.576;2022-12-10T01:39:35;37.20;;;23.63;;
11121;SDS011;5615;49.304;10.576;2022-12-10T01:42:02;35.83;;;22.93;;
11121;SDS011;5615;49.304;10.576;2022-12-10T01:47:33;35.77;;;23.07;;
11121;SDS011;5615;49.304;10.576;2022-12-10T01:50:00;37.00;;;24.13;;
11121;SDS011;5615;49.304;10.576;2022-12-10T01:52:28;38.53;;;23.77;;
11121;SDS011;5615;49.304;10.576;2022-12-10T01:54:55;36.83;;;23.97;;
11121;SDS011;5615;49.304;10.576;2022-12-10T01:57:22;39.40;;;23.90;;
11121;SDS011;5615;49.304;10.576;2022-12-10T01:59:52;34.50;;;23.97;;
11121;SDS011;5615;49.304;10.576;2022-12-10T02:02:24;36.33;;;23.37;;
11121;SDS011;5615;49.304;10.576;2022-12-10T02:05:01;36.90;;;23.03;;
11121;SDS011;5615;49.304;10.576;2022-12-10T02:07:38;35.67;;;23.87;;
11121;SDS011;5615;49.304;10.576;2022-12-10T02:10:17;37.87;;;23.43;;
11121;SDS011;5615;49.304;10.576;2022-12-10T02:12:52;32.73;;;22.90;;
11121;SDS011;5615;49.304;10.576;2022-12-10T02:15:34;36.67;;;23.63;;
11121;SDS011;5615;49.304;10.576;2022-12-10T02:18:09;35.47;;;23.07;;
11121;SDS011;5615;49.304;10.576;2022-12-10T02:20:40;34.90;;;22.87;;
11121;SDS011;5615;49.304;10.576;2022-12-10T02:23:08;36.87;;;24.47;;
11121;SDS011;5615;49.304;10.576;2022-12-10T02:25:38;34.20;;;23.20;;
11121;SDS011;5615;49.304;10.576;2022-12-10T02:28:12;35.07;;;23.87;;
11121;SDS011;5615;49.304;10.576;2022-12-10T02:30:47;39.47;;;25.17;;
11121;SDS011;5615;49.304;10.576;2022-12-10T02:33:16;35.13;;;22.00;;
11121;SDS011;5615;49.304;10.576;2022-12-10T02:35:44;34.07;;;22.00;;
11121;SDS011;5615;49.304;10.576;2022-12-10T02:38:16;36.03;;;23.23;;
11121;SDS011;5615;49.304;10.576;2022-12-10T02:40:49;32.40;;;22.40;;
11121;SDS011;5615;49.304;10.576;2022-12-10T02:43:19;37.10;;;23.80;;
11121;SDS011;5615;49.304;10.576;2022-12-10T02:45:49;35.10;;;23.60;;
11121;SDS011;5615;49.304;10.576;2022-12-10T02:48:16;35.90;;;23.67;;
11121;SDS011;5615;49.304;10.576;2022-12-10T02:50:44;36.70;;;23.67;;
11121;SDS011;5615;49.304;10.576;2022-12-10T02:53:11;34.60;;;23.10;;
11121;SDS011;5615;49.304;10.576;2022-12-10T02:55:42;34.73;;;22.60;;
11121;SDS011;5615;49.304;10.576;2022-12-10T02:58:20;36.43;;;23.37;;
11121;SDS011;5615;49.304;10.576;2022-12-10T03:00:57;33.67;;;22.57;;
11121;SDS011;5615;49.304;10.576;2022-12-10T03:03:31;36.97;;;24.33;;
11121;SDS011;5615;49.304;10.576;2022-12-10T03:06:05;38.50;;;24.33;;
11121;SDS011;5615;49.304;10.576;2022-12-10T03:08:38;34.47;;;22.90;;
11121;SDS011;5615;49.304;10.576;2022-12-10T03:11:11;34.87;;;23.03;;
11121;SDS011;5615;49.304;10.576;2022-12-10T03:13:42;34.30;;;22.40;;
11121;SDS011;5615;49.304;10.576;2022-12-10T03:16:15;36.90;;;23.87;;
11121;SDS011;5615;49.304;10.576;2022-12-10T03:18:43;36.33;;;22.90;;
11121;SDS011;5615;49.304;10.576;2022-12-10T03:21:12;36.27;;;23.40;;
11121;SDS011;5615;49.304;10.576;2022-12-10T03:23:42;35.03;;;22.87;;
11121;SDS011;5615;49.304;10.576;2022-12-10T03:26:11;35.00;;;24.07;;
11121;SDS011;5615;49.304;10.576;2022-12-10T03:28:41;34.20;;;23.67;;
11121;SDS011;5615;49.304;10.576;2022-12-10T03:31:11;36.13;;;24.30;;
11121;SDS011;5615;49.304;10.576;2022-12-10T03:33:41;34.80;;;23.33;;
11121;SDS011;5615;49.304;10.576;2022-12-10T03:36:09;35.87;;;23.50;;
11121;SDS011;5615;49.304;10.576;2022-12-10T03:38:36;35.53;;;24.00;;
11121;SDS011;5615;49.304;10.576;2022-12-10T03:41:03;34.63;;;22.57;;
11121;SDS011;5615;49.304;10.576;2022-12-10T03:43:30;36.80;;;24.93;;
11121;SDS011;5615;49.304;10.576;2022-12-10T03:45:57;35.23;;;23.37;;
11121;SDS011;5615;49.304;10.576;2022-12-10T03:48:23;34.17;;;22.70;;
11121;SDS011;5615;49.304;10.576;2022-12-10T03:50:51;35.80;;;23.30;;
11121;SDS011;5615;49.304;10.576;2022-12-10T03:53:18;36.57;;;24.60;;
11121;SDS011;5615;49.304;10.576;2022-12-10T03:55:45;32.70;;;22.73;;
11121;SDS011;5615;49.304;10.576;2022-12-10T03:58:12;33.03;;;22.83;;
11121;SDS011;5615;49.304;10.576;2022-12-10T04:00:38;37.83;;;24.07;;
11121;SDS011;5615;49.304;10.576;2022-12-10T04:03:05;36.40;;;23.20;;
11121;SDS011;5615;49.304;10.576;2022-12-10T04:05:32;36.57;;;23.40;;
11121;SDS011;5615;49.304;10.576;2022-12-10T04:08:00;33.10;;;22.90;;
11121;SDS011;5615;49.304;10.576;2022-12-10T04:10:27;37.07;;;22.77;;
11121;SDS011;5615;49.304;10.576;2022-12-10T04:12:53;36.50;;;23.50;;
11121;SDS011;5615;49.304;10.576;2022-12-10T04:15:37;33.67;;;23.10;;
11121;SDS011;5615;49.304;10.576;2022-12-10T04:18:22;34.23;;;23.30;;
11121;SDS011;5615;49.304;10.576;2022-12-10T04:20:48;34.13;;;22.83;;
11121;SDS011;5615;49.304;10.576;2022-12-10T04:23:34;35.17;;;23.03;;
11121;SDS011;5615;49.304;10.576;2022-12-10T04:26:18;35.43;;;23.13;;
11121;SDS011;5615;49.304;10.576;2022-12-10T04:29:02;36.47;;;23.17;;
11121;SDS011;5615;49.304;10.576;2022-12-10T04:31:30;38.50;;;23.47;;
11121;SDS011;5615;49.304;10.576;2022-12-10T04:33:56;35.37;;;23.27;;
11121;SDS011;5615;49.304;10.576;2022-12-10T04:36:23;33.73;;;23.07;;
11121;SDS011;5615;49.304;10.576;2022-12-10T04:38:51;36.47;;;24.20;;
11121;SDS011;5615;49.304;10.576;2022-12-10T04:41:17;32.90;;;22.57;;
11121;SDS011;5615;49.304;10.576;2022-12-10T04:43:44;36.07;;;22.57;;
11121;SDS011;5615;49.304;10.576;2022-12-10T04:46:11;36.80;;;23.50;;
11121;SDS011;5615;49.304;10.576;2022-12-10T04:48:37;40.43;;;24.93;;
11121;SDS011;5615;49.304;10.576;2022-12-10T04:51:04;37.13;;;24.17;;
11121;SDS011;5615;49.304;10.576;2022-12-10T04:53:31;36.47;;;23.93;;
11121;SDS011;5615;49.304;10.576;2022-12-10T04:55:59;33.67;;;23.73;;
11121;SDS011;5615;49.304;10.576;2022-12-10T04:58:30;39.83;;;24.43;;
11121;SDS011;5615;49.304;10.576;2022-12-10T05:01:00;36.60;;;23.80;;
11121;SDS011;5615;49.304;10.576;2022-12-10T05:03:27;37.03;;;23.70;;
11121;SDS011;5615;49.304;10.576;2022-12-10T05:05:54;38.20;;;24.50;;
11121;SDS011;5615;49.304;10.576;2022-12-10T05:08:21;34.53;;;23.27;;
11121;SDS011;5615;49.304;10.576;2022-12-10T05:10:47;40.23;;;25.90;;
11121;SDS011;5615;49.304;10.576;2022-12-10T05:13:15;40.90;;;25.93;;
11121;SDS011;5615;49.304;10.576;2022-12-10T05:15:43;42.40;;;23.97;;
11121;SDS011;5615;49.304;10.576;2022-12-10T05:18:10;42.67;;;25.03;;
11121;SDS011;5615;49.304;10.576;2022-12-10T05:20:36;39.97;;;25.17;;
11121;SDS011;5615;49.304;10.576;2022-12-10T05:23:04;37.90;;;25.27;;
11121;SDS011;5615;49.304;10.576;2022-12-10T05:25:48;38.70;;;24.80;;
11121;SDS011;5615;49.304;10.576;2022-12-10T05:28:24;38.13;;;24.90;;
11121;SDS011;5615;49.304;10.576;2022-12-10T05:30:51;39.27;;;24.27;;
11121;SDS011;5615;49.304;10.576;2022-12-10T05:33:18;40.53;;;25.20;;
11121;SDS011;5615;49.304;10.576;2022-12-10T05:35:51;40.43;;;25.53;;
11121;SDS011;5615;49.304;10.576;2022-12-10T05:38:18;41.67;;;26.93;;
11121;SDS011;5615;49.304;10.576;2022-12-10T05:40:45;41.30;;;26.20;;
11121;SDS011;5615;49.304;10.576;2022-12-10T05:43:12;44.17;;;26.23;;
11121;SDS011;5615;49.304;10.576;2022-12-10T05:45:40;41.97;;;26.83;;
11121;SDS011;5615;49.304;10.576;2022-12-10T05:48:08;40.53;;;25.43;;
11121;SDS011;5615;49.304;10.576;2022-12-10T05:50:35;40.40;;;24.13;;
11121;SDS011;5615;49.304;10.576;2022-12-10T05:53:02;41.33;;;25.90;;
11121;SDS011;5615;49.304;10.576;2022-12-10T05:55:29;41.50;;;26.07;;
11121;SDS011;5615;49.304;10.576;2022-12-10T05:57:57;44.20;;;27.03;;
11121;SDS011;5615;49.304;10.576;2022-12-10T06:00:24;43.07;;;27.80;;
11121;SDS011;5615;49.304;10.576;2022-12-10T06:02:53;42.20;;;25.10;;
11121;SDS011;5615;49.304;10.576;2022-12-10T06:05:20;44.97;;;27.73;;
11121;SDS011;5615;49.304;10.576;2022-12-10T06:07:46;46.73;;;28.07;;
11121;SDS011;5615;49.304;10.576;2022-12-10T06:10:13;44.90;;;28.50;;
11121;SDS011;5615;49.304;10.576;2022-12-10T06:12:40;41.90;;;26.47;;
11121;SDS011;5615;49.304;10.576;2022-12-10T06:15:07;44.80;;;27.60;;
11121;SDS011;5615;49.304;10.576;2022-12-10T06:17:34;45.63;;;28.17;;
11121;SDS011;5615;49.304;10.576;2022-12-10T06:20:02;48.53;;;28.50;;
11121;SDS011;5615;49.304;10.576;2022-12-10T06:22:29;43.53;;;27.80;;
11121;SDS011;5615;49.304;10.576;2022-12-10T06:24:56;46.13;;;27.40;;
11121;SDS011;5615;49.304;10.576;2022-12-10T06:27:23;44.73;;;26.37;;
11121;SDS011;5615;49.304;10.576;2022-12-10T06:29:49;44.63;;;27.17;;
11121;SDS011;5615;49.304;10.576;2022-12-10T06:32:16;43.93;;;27.57;;
11121;SDS011;5615;49.304;10.576;2022-12-10T06:34:43;44.00;;;27.77;;
11121;SDS011;5615;49.304;10.576;2022-12-10T06:37:11;43.00;;;25.93;;
11121;SDS011;5615;49.304;10.576;2022-12-10T06:39:38;43.50;;;27.00;;
11121;SDS011;5615;49.304;10.576;2022-12-10T06:42:04;43.77;;;26.13;;
11121;SDS011;5615;49.304;10.576;2022-12-10T06:44:31;42.27;;;26.97;;
11121;SDS011;5615;49.304;10.576;2022-12-10T06:46:58;44.37;;;27.17;;
11121;SDS011;5615;49.304;10.576;2022-12-10T06:49:24;44.93;;;26.87;;
11121;SDS011;5615;49.304;10.576;2022-12-10T06:51:51;45.83;;;28.80;;
11121;SDS011;5615;49.304;10.576;2022-12-10T06:54:19;45.07;;;27.50;;
11121;SDS011;5615;49.304;10.576;2022-12-10T06:56:47;44.50;;;27.47;;
11121;SDS011;5615;49.304;10.576;2022-12-10T06:59:14;45.33;;;27.37;;
11121;SDS011;5615;49.304;10.576;2022-12-10T07:01:40;48.70;;;28.47;;
11121;SDS011;5615;49.304;10.576;2022-12-10T07:04:07;49.33;;;28.80;;
11121;SDS011;5615;49.304;10.576;2022-12-10T07:06:34;46.50;;;27.80;;
11121;SDS011;5615;49.304;10.576;2022-12-10T07:09:01;46.47;;;29.17;;
11121;SDS011;5615;49.304;10.576;2022-12-10T07:11:29;63.77;;;35.70;;
11121;SDS011;5615;49.304;10.576;2022-12-10T07:13:56;109.70;;;51.47;;
11121;SDS011;5615;49.304;10.576;2022-12-10T07:16:24;69.87;;;36.13;;
11121;SDS011;5615;49.304;10.576;2022-12-10T07:18:52;65.67;;;34.90;;
11121;SDS011;5615;49.304;10.576;2022-12-10T07:21:21;54.67;;;31.73;;
11121;SDS011;5615;49.304;10.576;2022-12-10T07:23:49;61.30;;;33.90;;
11121;SDS011;5615;49.304;10.576;2022-12-10T07:26:18;49.77;;;29.47;;
11121;SDS011;5615;49.304;10.576;2022-12-10T07:28:47;53.97;;;31.87;;
11121;SDS011;5615;49.304;10.576;2022-12-10T07:31:13;46.53;;;29.33;;
11121;SDS011;5615;49.304;10.576;2022-12-10T07:33:40;49.47;;;28.10;;
11121;SDS011;5615;49.304;10.576;2022-12-10T07:36:08;49.13;;;29.27;;
11121;SDS011;5615;49.304;10.576;2022-12-10T07:38:35;48.60;;;31.20;;
11121;SDS011;5615;49.304;10.576;2022-12-10T07:41:04;49.07;;;30.63;;
11121;SDS011;5615;49.304;10.576;2022-12-10T07:43:33;52.70;;;31.30;;
11121;SDS011;5615;49.304;10.576;2022-12-10T07:46:06;52.43;;;29.60;;
11121;SDS011;5615;49.304;10.576;2022-12-10T07:48:34;53.33;;;31.30;;
11121;SDS011;5615;49.304;10.576;2022-12-10T07:51:03;52.27;;;32.27;;
11121;SDS011;5615;49.304;10.576;2022-12-10T07:53:30;54.13;;;31.10;;
11121;SDS011;5615;49.304;10.576;2022-12-10T07:55:57;45.67;;;28.70;;
11121;SDS011;5615;49.304;10.576;2022-12-10T07:58:24;48.03;;;29.03;;
11121;SDS011;5615;49.304;10.576;2022-12-10T08:00:50;49.50;;;30.47;;
11121;SDS011;5615;49.304;10.576;2022-12-10T08:03:18;48.67;;;30.47;;
11121;SDS011;5615;49.304;10.576;2022-12-10T08:05:45;43.30;;;27.53;;
11121;SDS011;5615;49.304;10.576;2022-12-10T08:08:12;50.23;;;30.47;;
11121;SDS011;5615;49.304;10.576;2022-12-10T08:10:38;44.40;;;27.80;;
11121;SDS011;5615;49.304;10.576;2022-12-10T08:13:05;44.97;;;27.33;;
11121;SDS011;5615;49.304;10.576;2022-12-10T08:15:32;49.03;;;35.33;;
11121;SDS011;5615;49.304;10.576;2022-12-10T08:17:59;46.63;;;34.03;;
11121;SDS011;5615;49.304;10.576;2022-12-10T08:20:27;46.37;;;28.33;;
11121;SDS011;5615;49.304;10.576;2022-12-10T08:22:53;38.73;;;25.73;;
11121;SDS011;5615;49.304;10.576;2022-12-10T08:25:20;45.33;;;27.57;;
11121;SDS011;5615;49.304;10.576;2022-12-10T08:27:47;42.10;;;25.80;;
11121;SDS011;5615;49.304;10.576;2022-12-10T08:30:13;43.70;;;25.90;;
11121;SDS011;5615;49.304;10.576;2022-12-10T08:32:40;39.27;;;25.90;;
11121;SDS011;5615;49.304;10.576;2022-12-10T08:35:07;42.67;;;27.10;;
11121;SDS011;5615;49.304;10.576;2022-12-10T08:37:35;41.47;;;26.90;;
11121;SDS011;5615;49.304;10.576;2022-12-10T08:40:02;43.83;;;27.20;;
11121;SDS011;5615;49.304;10.576;2022-12-10T08:42:29;39.10;;;26.57;;
11121;SDS011;5615;49.304;10.576;2022-12-10T08:44:55;39.60;;;26.37;;
11121;SDS011;5615;49.304;10.576;2022-12-10T08:47:22;38.50;;;26.17;;
11121;SDS011;5615;49.304;10.576;2022-12-10T08:49:49;40.17;;;25.27;;
11121;SDS011;5615;49.304;10.576;2022-12-10T08:52:16;38.27;;;25.53;;
11121;SDS011;5615;49.304;10.576;2022-12-10T08:54:44;37.83;;;25.80;;
11121;SDS011;5615;49.304;10.576;2022-12-10T08:57:13;39.83;;;25.73;;
11121;SDS011;5615;49.304;10.576;2022-12-10T08:59:40;36.33;;;25.03;;
11121;SDS011;5615;49.304;10.576;2022-12-10T09:02:07;39.10;;;24.53;;
11121;SDS011;5615;49.304;10.576;2022-12-10T09:04:36;38.97;;;24.63;;
11121;SDS011;5615;49.304;10.576;2022-12-10T09:07:04;39.00;;;26.17;;
11121;SDS011;5615;49.304;10.576;2022-12-10T09:09:30;37.40;;;24.63;;
11121;SDS011;5615;49.304;10.576;2022-12-10T09:11:59;38.07;;;26.00;;
11121;SDS011;5615;49.304;10.576;2022-12-10T09:14:25;38.47;;;24.27;;
11121;SDS011;5615;49.304;10.576;2022-12-10T09:16:52;43.83;;;24.43;;
11121;SDS011;5615;49.304;10.576;2022-12-10T09:19:19;36.77;;;23.77;;
11121;SDS011;5615;49.304;10.576;2022-12-10T09:21:45;65.37;;;35.00;;
11121;SDS011;5615;49.304;10.576;2022-12-10T09:24:12;44.33;;;27.50;;
11121;SDS011;5615;49.304;10.576;2022-12-10T09:26:39;52.27;;;30.27;;
11121;SDS011;5615;49.304;10.576;2022-12-10T09:29:07;63.27;;;35.57;;
11121;SDS011;5615;49.304;10.576;2022-12-10T09:31:34;34.30;;;24.53;;
11121;SDS011;5615;49.304;10.576;2022-12-10T09:34:00;45.77;;;28.60;;
11121;SDS011;5615;49.304;10.576;2022-12-10T09:36:28;48.93;;;30.50;;
11121;SDS011;5615;49.304;10.576;2022-12-10T09:38:54;48.23;;;28.70;;
11121;SDS011;5615;49.304;10.576;2022-12-10T09:41:34;54.03;;;33.60;;
11121;SDS011;5615;49.304;10.576;2022-12-10T09:44:11;61.30;;;36.37;;
11121;SDS011;5615;49.304;10.576;2022-12-10T09:46:48;51.63;;;30.87;;
11121;SDS011;5615;49.304;10.576;2022-12-10T09:49:20;37.33;;;23.20;;
11121;SDS011;5615;49.304;10.576;2022-12-10T09:51:54;54.43;;;30.63;;
11121;SDS011;5615;49.304;10.576;2022-12-10T09:54:24;34.53;;;23.47;;
11121;SDS011;5615;49.304;10.576;2022-12-10T09:56:53;36.23;;;23.87;;
11121;SDS011;5615;49.304;10.576;2022-12-10T09:59:24;31.03;;;21.33;;
11121;SDS011;5615;49.304;10.576;2022-12-10T10:01:59;40.50;;;24.73;;
11121;SDS011;5615;49.304;10.576;2022-12-10T10:04:37;66.70;;;36.53;;
11121;SDS011;5615;49.304;10.576;2022-12-10T10:07:05;33.90;;;23.40;;
11121;SDS011;5615;49.304;10.576;2022-12-10T10:09:39;44.97;;;27.73;;
11121;SDS011;5615;49.304;10.576;2022-12-10T10:12:09;38.00;;;24.17;;
11121;SDS011;5615;49.304;10.576;2022-12-10T10:14:39;31.93;;;22.20;;
11121;SDS011;5615;49.304;10.576;2022-12-10T10:17:08;32.97;;;22.53;;
11121;SDS011;5615;49.304;10.576;2022-12-10T10:19:40;32.40;;;22.97;;
11121;SDS011;5615;49.304;10.576;2022-12-10T10:22:09;35.27;;;24.77;;
11121;SDS011;5615;49.304;10.576;2022-12-10T10:24:37;35.50;;;23.97;;
11121;SDS011;5615;49.304;10.576;2022-12-10T10:27:10;31.27;;;21.87;;
11121;SDS011;5615;49.304;10.576;2022-12-10T10:29:40;30.83;;;22.13;;
11121;SDS011;5615;49.304;10.576;2022-12-10T10:32:13;29.50;;;21.30;;
11121;SDS011;5615;49.304;10.576;2022-12-10T10:34:41;31.47;;;22.47;;
11121;SDS011;5615;49.304;10.576;2022-12-10T10:37:13;29.03;;;20.73;;
11121;SDS011;5615;49.304;10.576;2022-12-10T10:39:50;30.47;;;21.80;;
11121;SDS011;5615;49.304;10.576;2022-12-10T10:42:24;29.83;;;21.07;;
11121;SDS011;5615;49.304;10.576;2022-12-10T10:44:55;33.27;;;21.67;;
11121;SDS011;5615;49.304;10.576;2022-12-10T10:47:23;29.40;;;21.40;;
11121;SDS011;5615;49.304;10.576;2022-12-10T10:49:52;29.80;;;21.53;;
11121;SDS011;5615;49.304;10.576;2022-12-10T10:52:19;31.27;;;21.87;;
11121;SDS011;5615;49.304;10.576;2022-12-10T10:54:46;35.67;;;22.27;;
11121;SDS011;5615;49.304;10.576;2022-12-10T10:57:14;31.67;;;22.27;;
11121;SDS011;5615;49.304;10.576;2022-12-10T10:59:45;33.63;;;21.77;;
11121;SDS011;5615;49.304;10.576;2022-12-10T11:02:19;32.20;;;22.70;;
11121;SDS011;5615;49.304;10.576;2022-12-10T11:04:49;33.00;;;22.53;;
11121;SDS011;5615;49.304;10.576;2022-12-10T11:07:20;30.67;;;22.83;;
11121;SDS011;5615;49.304;10.576;2022-12-10T11:09:50;31.90;;;22.60;;
11121;SDS011;5615;49.304;10.576;2022-12-10T11:15:29;33.57;;;23.70;;
11121;SDS011;5615;49.304;10.576;2022-12-10T11:18:00;41.60;;;28.90;;
11121;SDS011;5615;49.304;10.576;2022-12-10T11:20:28;38.13;;;25.77;;
11121;SDS011;5615;49.304;10.576;2022-12-10T11:22:57;29.73;;;22.00;;
11121;SDS011;5615;49.304;10.576;2022-12-10T11:25:28;32.17;;;22.53;;
11121;SDS011;5615;49.304;10.576;2022-12-10T11:28:12;31.77;;;22.97;;
11121;SDS011;5615;49.304;10.576;2022-12-10T11:31:05;35.87;;;23.13;;
11121;SDS011;5615;49.304;10.576;2022-12-10T11:33:46;34.50;;;24.73;;
11121;SDS011;5615;49.304;10.576;2022-12-10T11:36:23;34.77;;;22.27;;
11121;SDS011;5615;49.304;10.576;2022-12-10T11:39:06;32.67;;;22.00;;
11121;SDS011;5615;49.304;10.576;2022-12-10T11:41:42;31.07;;;22.47;;
11121;SDS011;5615;49.304;10.576;2022-12-10T11:44:16;35.77;;;25.57;;
11121;SDS011;5615;49.304;10.576;2022-12-10T11:47:01;33.43;;;24.00;;
11121;SDS011;5615;49.304;10.576;2022-12-10T11:49:59;37.40;;;22.40;;
11121;SDS011;5615;49.304;10.576;2022-12-10T11:52:37;36.87;;;23.53;;
11121;SDS011;5615;49.304;10.576;2022-12-10T11:55:17;40.00;;;25.47;;
11121;SDS011;5615;49.304;10.576;2022-12-10T11:57:55;36.40;;;24.77;;
11121;SDS011;5615;49.304;10.576;2022-12-10T12:00:30;35.10;;;24.37;;
11121;SDS011;5615;49.304;10.576;2022-12-10T12:03:07;37.60;;;24.97;;
11121;SDS011;5615;49.304;10.576;2022-12-10T12:05:52;38.67;;;24.17;;
11121;SDS011;5615;49.304;10.576;2022-12-10T12:08:32;39.43;;;25.37;;
11121;SDS011;5615;49.304;10.576;2022-12-10T12:11:12;39.23;;;26.23;;
11121;SDS011;5615;49.304;10.576;2022-12-10T12:13:50;37.93;;;25.50;;
11121;SDS011;5615;49.304;10.576;2022-12-10T12:16:24;38.10;;;25.67;;
11121;SDS011;5615;49.304;10.576;2022-12-10T12:18:57;38.83;;;24.53;;
11121;SDS011;5615;49.304;10.576;2022-12-10T12:21:28;35.50;;;24.47;;
11121;SDS011;5615;49.304;10.576;2022-12-10T12:23:56;37.23;;;24.33;;
11121;SDS011;5615;49.304;10.576;2022-12-10T12:26:26;37.10;;;24.40;;
11121;SDS011;5615;49.304;10.576;2022-12-10T12:28:57;39.03;;;24.93;;
11121;SDS011;5615;49.304;10.576;2022-12-10T12:31:34;38.20;;;25.50;;
11121;SDS011;5615;49.304;10.576;2022-12-10T12:34:05;39.97;;;25.53;;
11121;SDS011;5615;49.304;10.576;2022-12-10T12:36:43;42.30;;;26.83;;
11121;SDS011;5615;49.304;10.576;2022-12-10T12:39:13;39.07;;;25.17;;
11121;SDS011;5615;49.304;10.576;2022-12-10T12:41:45;37.53;;;25.43;;
11121;SDS011;5615;49.304;10.576;2022-12-10T12:44:21;45.00;;;28.23;;
11121;SDS011;5615;49.304;10.576;2022-12-10T12:46:55;38.33;;;26.07;;
11121;SDS011;5615;49.304;10.576;2022-12-10T12:49:26;39.63;;;25.70;;
11121;SDS011;5615;49.304;10.576;2022-12-10T12:52:00;43.17;;;27.20;;
11121;SDS011;5615;49.304;10.576;2022-12-10T12:54:28;40.33;;;26.33;;
11121;SDS011;5615;49.304;10.576;2022-12-10T12:56:57;43.47;;;27.33;;
11121;SDS011;5615;49.304;10.576;2022-12-10T12:59:38;41.47;;;25.50;;
11121;SDS011;5615;49.304;10.576;2022-12-10T13:02:20;38.00;;;26.03;;
11121;SDS011;5615;49.304;10.576;2022-12-10T13:05:11;42.20;;;24.97;;
11121;SDS011;5615;49.304;10.576;2022-12-10T13:07:41;40.23;;;25.77;;
11121;SDS011;5615;49.304;10.576;2022-12-10T13:10:18;41.00;;;26.77;;
11121;SDS011;5615;49.304;10.576;2022-12-10T13:12:51;39.83;;;26.50;;
11121;SDS011;5615;49.304;10.576;2022-12-10T13:15:33;42.43;;;27.57;;
11121;SDS011;5615;49.304;10.576;2022-12-10T13:18:06;40.63;;;25.70;;
11121;SDS011;5615;49.304;10.576;2022-12-10T13:20:49;39.93;;;26.40;;
11121;SDS011;5615;49.304;10.576;2022-12-10T13:23:32;42.93;;;26.93;;
11121;SDS011;5615;49.304;10.576;2022-12-10T13:26:00;43.10;;;27.33;;
11121;SDS011;5615;49.304;10.576;2022-12-10T13:28:51;44.00;;;27.90;;
11121;SDS011;5615;49.304;10.576;2022-12-10T13:31:21;39.40;;;26.47;;
11121;SDS011;5615;49.304;10.576;2022-12-10T13:34:05;46.23;;;28.13;;
11121;SDS011;5615;49.304;10.576;2022-12-10T13:39:48;46.73;;;27.63;;
11121;SDS011;5615;49.304;10.576;2022-12-10T13:42:30;38.07;;;26.07;;
11121;SDS011;5615;49.304;10.576;2022-12-10T13:45:24;40.00;;;27.30;;
11121;SDS011;5615;49.304;10.576;2022-12-10T13:48:07;38.60;;;26.43;;
11121;SDS011;5615;49.304;10.576;2022-12-10T13:53:55;42.93;;;26.67;;
11121;SDS011;5615;49.304;10.576;2022-12-10T13:56:38;38.47;;;24.93;;
11121;SDS011;5615;49.304;10.576;2022-12-10T13:59:12;40.33;;;27.10;;
11121;SDS011;5615;49.304;10.576;2022-12-10T14:01:51;43.10;;;26.47;;
11121;SDS011;5615;49.304;10.576;2022-12-10T14:04:39;44.50;;;26.40;;
11121;SDS011;5615;49.304;10.576;2022-12-10T14:07:16;45.33;;;27.90;;
11121;SDS011;5615;49.304;10.576;2022-12-10T14:09:45;42.20;;;26.33;;
11121;SDS011;5615;49.304;10.576;2022-12-10T14:12:18;41.63;;;26.23;;
11121;SDS011;5615;49.304;10.576;2022-12-10T14:14:52;42.37;;;27.50;;
11121;SDS011;5615;49.304;10.576;2022-12-10T14:17:23;42.33;;;26.70;;
11121;SDS011;5615;49.304;10.576;2022-12-10T14:19:56;41.23;;;26.73;;
11121;SDS011;5615;49.304;10.576;2022-12-10T14:22:27;43.57;;;26.97;;
11121;SDS011;5615;49.304;10.576;2022-12-10T14:24:58;41.87;;;26.50;;
11121;SDS011;5615;49.304;10.576;2022-12-10T14:27:27;41.57;;;26.67;;
11121;SDS011;5615;49.304;10.576;2022-12-10T14:29:58;48.07;;;27.03;;
11121;SDS011;5615;49.304;10.576;2022-12-10T14:32:29;44.10;;;27.73;;
11121;SDS011;5615;49.304;10.576;2022-12-10T14:34:58;42.33;;;27.13;;
11121;SDS011;5615;49.304;10.576;2022-12-10T14:37:27;42.07;;;27.50;;
11121;SDS011;5615;49.304;10.576;2022-12-10T14:39:56;45.00;;;28.13;;
11121;SDS011;5615;49.304;10.576;2022-12-10T14:42:23;45.57;;;29.10;;
11121;SDS011;5615;49.304;10.576;2022-12-10T14:44:54;40.17;;;26.33;;
11121;SDS011;5615;49.304;10.576;2022-12-10T14:47:24;41.27;;;26.07;;
11121;SDS011;5615;49.304;10.576;2022-12-10T14:49:51;44.27;;;27.53;;
11121;SDS011;5615;49.304;10.576;2022-12-10T14:52:20;41.57;;;26.73;;